Search METAR Data

METAR Data for ENGM:

ENGM 220450Z 36002KT CAVOK 10/05 Q1022 NOSIG